sensor_id;sensor_type;location;lat;lon;timestamp;temperature;humidity
27567;DHT22;15006;48.584;9.186;2022-12-11T00:01:20;-3.70;99.40
27567;DHT22;15006;48.584;9.186;2022-12-11T00:03:48;-3.70;99.40
27567;DHT22;15006;48.584;9.186;2022-12-11T00:06:20;-3.70;99.70
27567;DHT22;15006;48.584;9.186;2022-12-11T00:08:53;-3.70;99.90
27567;DHT22;15006;48.584;9.186;2022-12-11T00:11:22;-3.70;99.90
27567;DHT22;15006;48.584;9.186;2022-12-11T00:13:50;-3.70;99.90
27567;DHT22;15006;48.584;9.186;2022-12-11T00:16:18;-3.70;99.90
27567;DHT22;15006;48.584;9.186;2022-12-11T00:18:46;-3.70;99.90
27567;DHT22;15006;48.584;9.186;2022-12-11T00:21:14;-3.70;99.90
27567;DHT22;15006;48.584;9.186;2022-12-11T00:23:45;-3.70;99.90
27567;DHT22;15006;48.584;9.186;2022-12-11T00:26:17;-3.70;99.90
27567;DHT22;15006;48.584;9.186;2022-12-11T00:28:52;-3.70;99.90
27567;DHT22;15006;48.584;9.186;2022-12-11T00:31:25;-3.70;99.90
27567;DHT22;15006;48.584;9.186;2022-12-11T00:33:53;-3.60;99.90
27567;DHT22;15006;48.584;9.186;2022-12-11T00:36:23;-3.70;99.90
27567;DHT22;15006;48.584;9.186;2022-12-11T00:38:51;-3.60;99.90
27567;DHT22;15006;48.584;9.186;2022-12-11T00:41:18;-3.70;99.90
27567;DHT22;15006;48.584;9.186;2022-12-11T00:43:46;-3.70;99.90
27567;DHT22;15006;48.584;9.186;2022-12-11T00:46:13;-3.70;99.90
27567;DHT22;15006;48.584;9.186;2022-12-11T00:48:40;-3.70;99.90
27567;DHT22;15006;48.584;9.186;2022-12-11T00:51:09;-3.60;99.90
27567;DHT22;15006;48.584;9.186;2022-12-11T00:53:35;-3.60;99.90
27567;DHT22;15006;48.584;9.186;2022-12-11T00:56:11;-3.60;99.90
27567;DHT22;15006;48.584;9.186;2022-12-11T00:58:41;-3.60;99.90
27567;DHT22;15006;48.584;9.186;2022-12-11T01:01:08;-3.60;99.90
27567;DHT22;15006;48.584;9.186;2022-12-11T01:03:37;-3.60;99.90
27567;DHT22;15006;48.584;9.186;2022-12-11T01:06:05;-3.60;99.90
27567;DHT22;15006;48.584;9.186;2022-12-11T01:08:33;-3.60;99.90
27567;DHT22;15006;48.584;9.186;2022-12-11T01:11:08;-3.60;99.90
27567;DHT22;15006;48.584;9.186;2022-12-11T01:13:39;-3.60;99.90
27567;DHT22;15006;48.584;9.186;2022-12-11T01:16:13;-3.60;99.90
27567;DHT22;15006;48.584;9.186;2022-12-11T01:18:41;-3.60;99.90
27567;DHT22;15006;48.584;9.186;2022-12-11T01:21:09;-3.50;99.90
27567;DHT22;15006;48.584;9.186;2022-12-11T01:23:37;-3.60;99.90
27567;DHT22;15006;48.584;9.186;2022-12-11T01:26:08;-3.60;99.90
27567;DHT22;15006;48.584;9.186;2022-12-11T01:28:36;-3.60;99.90
27567;DHT22;15006;48.584;9.186;2022-12-11T01:31:11;-3.60;99.90
27567;DHT22;15006;48.584;9.186;2022-12-11T01:33:40;-3.60;99.90
27567;DHT22;15006;48.584;9.186;2022-12-11T01:38:38;-3.60;99.90
27567;DHT22;15006;48.584;9.186;2022-12-11T01:41:06;-3.60;99.90
27567;DHT22;15006;48.584;9.186;2022-12-11T01:43:33;-3.50;99.90
27567;DHT22;15006;48.584;9.186;2022-12-11T01:45:59;-3.60;99.90
27567;DHT22;15006;48.584;9.186;2022-12-11T01:48:28;-3.50;99.90
27567;DHT22;15006;48.584;9.186;2022-12-11T01:51:03;-3.60;99.90
27567;DHT22;15006;48.584;9.186;2022-12-11T01:53:33;-3.60;99.90
27567;DHT22;15006;48.584;9.186;2022-12-11T01:56:00;-3.60;99.90
27567;DHT22;15006;48.584;9.186;2022-12-11T01:58:33;-3.60;99.90
27567;DHT22;15006;48.584;9.186;2022-12-11T02:01:04;-3.60;99.70
27567;DHT22;15006;48.584;9.186;2022-12-11T02:03:33;-3.60;99.90
27567;DHT22;15006;48.584;9.186;2022-12-11T02:06:01;-3.60;99.90
27567;DHT22;15006;48.584;9.186;2022-12-11T02:08:30;-3.70;99.90
27567;DHT22;15006;48.584;9.186;2022-12-11T02:11:16;-3.60;99.90
27567;DHT22;15006;48.584;9.186;2022-12-11T02:14:00;-3.60;99.50
27567;DHT22;15006;48.584;9.186;2022-12-11T02:16:43;-3.60;99.70
27567;DHT22;15006;48.584;9.186;2022-12-11T02:19:37;-3.60;99.70
27567;DHT22;15006;48.584;9.186;2022-12-11T02:28:28;-3.60;99.30
27567;DHT22;15006;48.584;9.186;2022-12-11T02:31:26;-3.60;99.40
27567;DHT22;15006;48.584;9.186;2022-12-11T02:34:07;-3.70;98.80
27567;DHT22;15006;48.584;9.186;2022-12-11T02:36:44;-3.70;99.20
27567;DHT22;15006;48.584;9.186;2022-12-11T02:39:15;-3.70;99.30
27567;DHT22;15006;48.584;9.186;2022-12-11T02:41:47;-3.70;99.50
27567;DHT22;15006;48.584;9.186;2022-12-11T02:44:16;-3.80;99.30
27567;DHT22;15006;48.584;9.186;2022-12-11T02:46:44;-3.80;99.50
27567;DHT22;15006;48.584;9.186;2022-12-11T02:49:11;-3.80;99.70
27567;DHT22;15006;48.584;9.186;2022-12-11T02:51:40;-3.80;99.80
27567;DHT22;15006;48.584;9.186;2022-12-11T02:54:15;-3.80;99.90
27567;DHT22;15006;48.584;9.186;2022-12-11T02:56:47;-3.80;99.90
27567;DHT22;15006;48.584;9.186;2022-12-11T02:59:24;-3.80;99.90
27567;DHT22;15006;48.584;9.186;2022-12-11T03:01:53;-3.80;99.90
27567;DHT22;15006;48.584;9.186;2022-12-11T03:04:19;-3.80;99.90
27567;DHT22;15006;48.584;9.186;2022-12-11T03:06:53;-3.70;99.90
27567;DHT22;15006;48.584;9.186;2022-12-11T03:09:20;-3.70;99.90
27567;DHT22;15006;48.584;9.186;2022-12-11T03:11:46;-3.60;99.90
27567;DHT22;15006;48.584;9.186;2022-12-11T03:14:12;-3.60;99.90
27567;DHT22;15006;48.584;9.186;2022-12-11T03:17:07;-3.60;99.90
27567;DHT22;15006;48.584;9.186;2022-12-11T03:19:35;-3.50;99.90
27567;DHT22;15006;48.584;9.186;2022-12-11T03:22:14;-3.50;99.90
27567;DHT22;15006;48.584;9.186;2022-12-11T03:25:15;-3.50;99.90
27567;DHT22;15006;48.584;9.186;2022-12-11T03:27:49;-3.40;99.80
27567;DHT22;15006;48.584;9.186;2022-12-11T03:30:25;-3.50;99.80
27567;DHT22;15006;48.584;9.186;2022-12-11T03:32:57;-3.50;99.70
27567;DHT22;15006;48.584;9.186;2022-12-11T03:35:43;-3.50;99.50
27567;DHT22;15006;48.584;9.186;2022-12-11T03:38:20;-3.50;98.60
27567;DHT22;15006;48.584;9.186;2022-12-11T03:40:52;-3.50;98.60
27567;DHT22;15006;48.584;9.186;2022-12-11T03:43:20;-3.50;98.60
27567;DHT22;15006;48.584;9.186;2022-12-11T03:45:47;-3.50;98.40
27567;DHT22;15006;48.584;9.186;2022-12-11T03:48:16;-3.60;98.10
27567;DHT22;15006;48.584;9.186;2022-12-11T03:50:44;-3.70;97.60
27567;DHT22;15006;48.584;9.186;2022-12-11T03:53:12;-3.70;97.20
27567;DHT22;15006;48.584;9.186;2022-12-11T03:55:39;-3.80;96.80
27567;DHT22;15006;48.584;9.186;2022-12-11T03:58:06;-3.90;96.00
27567;DHT22;15006;48.584;9.186;2022-12-11T04:00:32;-3.90;95.60
27567;DHT22;15006;48.584;9.186;2022-12-11T04:02:58;-4.10;95.80
27567;DHT22;15006;48.584;9.186;2022-12-11T04:05:48;-4.20;96.20
27567;DHT22;15006;48.584;9.186;2022-12-11T04:08:17;-4.30;96.00
27567;DHT22;15006;48.584;9.186;2022-12-11T04:10:45;-4.40;96.10
27567;DHT22;15006;48.584;9.186;2022-12-11T04:13:11;-4.50;96.30
27567;DHT22;15006;48.584;9.186;2022-12-11T04:15:38;-4.60;96.20
27567;DHT22;15006;48.584;9.186;2022-12-11T04:18:05;-4.70;96.40
27567;DHT22;15006;48.584;9.186;2022-12-11T04:20:55;-4.80;97.80
27567;DHT22;15006;48.584;9.186;2022-12-11T04:23:40;-4.90;98.70
27567;DHT22;15006;48.584;9.186;2022-12-11T04:26:24;-4.90;99.50
27567;DHT22;15006;48.584;9.186;2022-12-11T04:28:50;-4.90;99.70
27567;DHT22;15006;48.584;9.186;2022-12-11T04:31:19;-5.00;99.90
27567;DHT22;15006;48.584;9.186;2022-12-11T04:33:46;-5.00;99.90
27567;DHT22;15006;48.584;9.186;2022-12-11T04:36:12;-5.00;99.90
27567;DHT22;15006;48.584;9.186;2022-12-11T04:38:39;-5.00;99.90
27567;DHT22;15006;48.584;9.186;2022-12-11T04:41:08;-5.00;99.90
27567;DHT22;15006;48.584;9.186;2022-12-11T04:43:36;-5.00;99.90
27567;DHT22;15006;48.584;9.186;2022-12-11T04:46:22;-5.00;99.90
27567;DHT22;15006;48.584;9.186;2022-12-11T04:48:49;-5.00;99.90
27567;DHT22;15006;48.584;9.186;2022-12-11T04:51:16;-5.00;99.90
27567;DHT22;15006;48.584;9.186;2022-12-11T04:53:43;-5.00;99.90
27567;DHT22;15006;48.584;9.186;2022-12-11T04:56:12;-5.00;99.90
27567;DHT22;15006;48.584;9.186;2022-12-11T04:58:41;-5.00;99.90
27567;DHT22;15006;48.584;9.186;2022-12-11T05:01:09;-5.00;99.90
27567;DHT22;15006;48.584;9.186;2022-12-11T05:03:36;-5.00;99.90
27567;DHT22;15006;48.584;9.186;2022-12-11T05:06:03;-5.00;99.90
27567;DHT22;15006;48.584;9.186;2022-12-11T05:08:29;-5.00;99.90
27567;DHT22;15006;48.584;9.186;2022-12-11T05:11:01;-4.90;99.90
27567;DHT22;15006;48.584;9.186;2022-12-11T05:13:29;-4.90;99.90
27567;DHT22;15006;48.584;9.186;2022-12-11T05:15:55;-4.90;99.90
27567;DHT22;15006;48.584;9.186;2022-12-11T05:18:22;-4.90;99.90
27567;DHT22;15006;48.584;9.186;2022-12-11T05:20:59;-4.90;99.90
27567;DHT22;15006;48.584;9.186;2022-12-11T05:23:27;-4.80;99.90
27567;DHT22;15006;48.584;9.186;2022-12-11T05:25:58;-4.90;99.90
27567;DHT22;15006;48.584;9.186;2022-12-11T05:28:28;-4.80;99.90
27567;DHT22;15006;48.584;9.186;2022-12-11T05:31:07;-4.80;99.90
27567;DHT22;15006;48.584;9.186;2022-12-11T05:33:44;-4.80;99.90
27567;DHT22;15006;48.584;9.186;2022-12-11T05:36:28;-4.80;99.90
27567;DHT22;15006;48.584;9.186;2022-12-11T05:38:57;-4.80;99.80
27567;DHT22;15006;48.584;9.186;2022-12-11T05:41:26;-4.80;99.90
27567;DHT22;15006;48.584;9.186;2022-12-11T05:43:53;-4.80;99.90
27567;DHT22;15006;48.584;9.186;2022-12-11T05:46:24;-4.80;99.90
27567;DHT22;15006;48.584;9.186;2022-12-11T05:48:54;-4.80;99.60
27567;DHT22;15006;48.584;9.186;2022-12-11T05:51:26;-4.80;99.60
27567;DHT22;15006;48.584;9.186;2022-12-11T05:53:54;-4.80;99.80
27567;DHT22;15006;48.584;9.186;2022-12-11T05:56:26;-4.90;99.80
27567;DHT22;15006;48.584;9.186;2022-12-11T05:58:55;-4.90;99.70
27567;DHT22;15006;48.584;9.186;2022-12-11T06:01:25;-4.90;99.70
27567;DHT22;15006;48.584;9.186;2022-12-11T06:03:54;-4.90;99.70
27567;DHT22;15006;48.584;9.186;2022-12-11T06:06:21;-4.90;99.70
27567;DHT22;15006;48.584;9.186;2022-12-11T06:08:51;-5.00;99.80
27567;DHT22;15006;48.584;9.186;2022-12-11T06:11:18;-5.00;99.50
27567;DHT22;15006;48.584;9.186;2022-12-11T06:13:45;-5.00;99.50
27567;DHT22;15006;48.584;9.186;2022-12-11T06:16:11;-5.00;99.20
27567;DHT22;15006;48.584;9.186;2022-12-11T06:18:42;-5.10;98.50
27567;DHT22;15006;48.584;9.186;2022-12-11T06:21:31;-5.10;98.20
27567;DHT22;15006;48.584;9.186;2022-12-11T06:23:58;-5.20;98.10
27567;DHT22;15006;48.584;9.186;2022-12-11T06:26:27;-5.20;98.10
27567;DHT22;15006;48.584;9.186;2022-12-11T06:28:53;-5.30;97.80
27567;DHT22;15006;48.584;9.186;2022-12-11T06:31:20;-5.40;97.70
27567;DHT22;15006;48.584;9.186;2022-12-11T06:33:46;-5.40;97.60
27567;DHT22;15006;48.584;9.186;2022-12-11T06:36:18;-5.50;97.70
27567;DHT22;15006;48.584;9.186;2022-12-11T06:38:46;-5.60;97.60
27567;DHT22;15006;48.584;9.186;2022-12-11T06:41:12;-5.60;97.70
27567;DHT22;15006;48.584;9.186;2022-12-11T06:43:40;-5.70;97.80
27567;DHT22;15006;48.584;9.186;2022-12-11T06:46:13;-5.70;98.30
27567;DHT22;15006;48.584;9.186;2022-12-11T06:48:41;-5.80;97.80
27567;DHT22;15006;48.584;9.186;2022-12-11T06:51:13;-5.80;97.70
27567;DHT22;15006;48.584;9.186;2022-12-11T06:53:40;-5.90;97.50
27567;DHT22;15006;48.584;9.186;2022-12-11T06:56:09;-5.90;97.60
27567;DHT22;15006;48.584;9.186;2022-12-11T06:58:39;-6.00;97.70
27567;DHT22;15006;48.584;9.186;2022-12-11T07:01:20;-6.00;97.90
27567;DHT22;15006;48.584;9.186;2022-12-11T07:03:54;-6.10;97.90
27567;DHT22;15006;48.584;9.186;2022-12-11T07:06:21;-6.10;98.00
27567;DHT22;15006;48.584;9.186;2022-12-11T07:08:48;-6.10;97.80
27567;DHT22;15006;48.584;9.186;2022-12-11T07:11:16;-6.20;97.40
27567;DHT22;15006;48.584;9.186;2022-12-11T07:13:43;-6.20;97.20
27567;DHT22;15006;48.584;9.186;2022-12-11T07:16:11;-6.30;97.00
27567;DHT22;15006;48.584;9.186;2022-12-11T07:18:40;-6.30;97.00
27567;DHT22;15006;48.584;9.186;2022-12-11T07:21:09;-6.40;97.10
27567;DHT22;15006;48.584;9.186;2022-12-11T07:23:37;-6.40;97.00
27567;DHT22;15006;48.584;9.186;2022-12-11T07:26:05;-6.40;97.00
27567;DHT22;15006;48.584;9.186;2022-12-11T07:28:32;-6.50;97.10
27567;DHT22;15006;48.584;9.186;2022-12-11T07:31:03;-6.50;97.60
27567;DHT22;15006;48.584;9.186;2022-12-11T07:33:36;-6.50;98.30
27567;DHT22;15006;48.584;9.186;2022-12-11T07:36:04;-6.50;99.10
27567;DHT22;15006;48.584;9.186;2022-12-11T07:38:31;-6.50;99.80
27567;DHT22;15006;48.584;9.186;2022-12-11T07:41:05;-6.50;99.90
27567;DHT22;15006;48.584;9.186;2022-12-11T07:43:33;-6.40;99.90
27567;DHT22;15006;48.584;9.186;2022-12-11T07:46:01;-6.30;99.90
27567;DHT22;15006;48.584;9.186;2022-12-11T07:48:28;-6.30;99.90
27567;DHT22;15006;48.584;9.186;2022-12-11T07:50:55;-6.20;99.90
27567;DHT22;15006;48.584;9.186;2022-12-11T07:53:20;-6.10;99.90
27567;DHT22;15006;48.584;9.186;2022-12-11T07:55:46;-6.00;99.90
27567;DHT22;15006;48.584;9.186;2022-12-11T07:58:12;-5.90;99.90
27567;DHT22;15006;48.584;9.186;2022-12-11T08:00:38;-5.90;99.90
27567;DHT22;15006;48.584;9.186;2022-12-11T08:03:05;-5.80;99.90
27567;DHT22;15006;48.584;9.186;2022-12-11T08:05:31;-5.80;99.90
27567;DHT22;15006;48.584;9.186;2022-12-11T08:07:56;-5.70;99.90
27567;DHT22;15006;48.584;9.186;2022-12-11T08:10:23;-5.70;99.90
27567;DHT22;15006;48.584;9.186;2022-12-11T08:12:48;-5.60;99.90
27567;DHT22;15006;48.584;9.186;2022-12-11T08:15:15;-5.60;99.90
27567;DHT22;15006;48.584;9.186;2022-12-11T08:17:40;-5.60;99.80
27567;DHT22;15006;48.584;9.186;2022-12-11T08:20:07;-5.60;99.80
27567;DHT22;15006;48.584;9.186;2022-12-11T08:22:33;-5.60;99.80
27567;DHT22;15006;48.584;9.186;2022-12-11T08:24:59;-5.50;99.90
27567;DHT22;15006;48.584;9.186;2022-12-11T08:27:25;-5.50;99.90
27567;DHT22;15006;48.584;9.186;2022-12-11T08:29:51;-5.50;99.70
27567;DHT22;15006;48.584;9.186;2022-12-11T08:32:17;-5.50;99.40
27567;DHT22;15006;48.584;9.186;2022-12-11T08:34:43;-5.50;99.40
27567;DHT22;15006;48.584;9.186;2022-12-11T08:37:09;-5.50;99.50
27567;DHT22;15006;48.584;9.186;2022-12-11T08:39:35;-5.40;99.50
27567;DHT22;15006;48.584;9.186;2022-12-11T08:42:01;-5.40;99.50
27567;DHT22;15006;48.584;9.186;2022-12-11T08:44:28;-5.40;99.70
27567;DHT22;15006;48.584;9.186;2022-12-11T08:46:54;-5.40;99.70
27567;DHT22;15006;48.584;9.186;2022-12-11T08:49:20;-5.30;99.90
27567;DHT22;15006;48.584;9.186;2022-12-11T08:51:46;-5.20;99.90
27567;DHT22;15006;48.584;9.186;2022-12-11T08:54:12;-5.10;99.90
27567;DHT22;15006;48.584;9.186;2022-12-11T08:56:38;-5.00;99.90
27567;DHT22;15006;48.584;9.186;2022-12-11T08:59:04;-4.90;99.90
27567;DHT22;15006;48.584;9.186;2022-12-11T09:01:30;-4.80;99.90
27567;DHT22;15006;48.584;9.186;2022-12-11T09:03:57;-4.70;99.90
27567;DHT22;15006;48.584;9.186;2022-12-11T09:06:25;-4.60;99.90
27567;DHT22;15006;48.584;9.186;2022-12-11T09:08:53;-4.50;99.90
27567;DHT22;15006;48.584;9.186;2022-12-11T09:11:27;-4.30;99.90
27567;DHT22;15006;48.584;9.186;2022-12-11T09:13:55;-4.20;99.10
27567;DHT22;15006;48.584;9.186;2022-12-11T09:16:24;-4.00;99.60
27567;DHT22;15006;48.584;9.186;2022-12-11T09:18:52;-3.90;98.80
27567;DHT22;15006;48.584;9.186;2022-12-11T09:21:23;-3.90;97.70
27567;DHT22;15006;48.584;9.186;2022-12-11T09:23:55;-3.80;97.00
27567;DHT22;15006;48.584;9.186;2022-12-11T09:26:23;-3.80;96.80
27567;DHT22;15006;48.584;9.186;2022-12-11T09:28:50;-3.80;96.60
27567;DHT22;15006;48.584;9.186;2022-12-11T09:31:27;-3.80;96.00
27567;DHT22;15006;48.584;9.186;2022-12-11T09:33:59;-3.70;95.60
27567;DHT22;15006;48.584;9.186;2022-12-11T09:36:28;-3.70;95.90
27567;DHT22;15006;48.584;9.186;2022-12-11T09:38:54;-3.70;95.80
27567;DHT22;15006;48.584;9.186;2022-12-11T09:46:33;-3.80;94.60
27567;DHT22;15006;48.584;9.186;2022-12-11T09:49:02;-3.80;95.10
27567;DHT22;15006;48.584;9.186;2022-12-11T09:51:35;-3.80;95.20
27567;DHT22;15006;48.584;9.186;2022-12-11T09:54:05;-3.80;94.40
27567;DHT22;15006;48.584;9.186;2022-12-11T09:56:35;-3.80;95.00
27567;DHT22;15006;48.584;9.186;2022-12-11T10:02:36;-3.80;95.00
27567;DHT22;15006;48.584;9.186;2022-12-11T10:05:27;-3.70;94.10
27567;DHT22;15006;48.584;9.186;2022-12-11T10:17:11;-3.60;95.10
27567;DHT22;15006;48.584;9.186;2022-12-11T10:19:40;-3.50;95.90
27567;DHT22;15006;48.584;9.186;2022-12-11T10:22:20;-3.50;96.20
27567;DHT22;15006;48.584;9.186;2022-12-11T10:25:03;-3.40;95.00
27567;DHT22;15006;48.584;9.186;2022-12-11T10:27:34;-3.40;94.30
27567;DHT22;15006;48.584;9.186;2022-12-11T10:32:50;-3.30;94.40
27567;DHT22;15006;48.584;9.186;2022-12-11T10:35:50;-3.30;94.10
27567;DHT22;15006;48.584;9.186;2022-12-11T10:38:28;-3.20;93.70
27567;DHT22;15006;48.584;9.186;2022-12-11T10:41:04;-3.20;94.40
27567;DHT22;15006;48.584;9.186;2022-12-11T10:43:37;-3.10;94.30
27567;DHT22;15006;48.584;9.186;2022-12-11T10:46:11;-3.10;94.60
27567;DHT22;15006;48.584;9.186;2022-12-11T10:49:01;-3.10;94.60
27567;DHT22;15006;48.584;9.186;2022-12-11T10:56:56;-3.00;93.30
27567;DHT22;15006;48.584;9.186;2022-12-11T10:59:29;-2.90;94.30
27567;DHT22;15006;48.584;9.186;2022-12-11T11:01:58;-2.90;93.70
27567;DHT22;15006;48.584;9.186;2022-12-11T11:04:31;-2.80;94.40
27567;DHT22;15006;48.584;9.186;2022-12-11T11:07:22;-2.80;93.80
27567;DHT22;15006;48.584;9.186;2022-12-11T11:10:03;-2.80;93.60
27567;DHT22;15006;48.584;9.186;2022-12-11T11:12:44;-2.70;93.60
27567;DHT22;15006;48.584;9.186;2022-12-11T11:15:21;-2.70;93.50
27567;DHT22;15006;48.584;9.186;2022-12-11T11:17:52;-2.60;93.30
27567;DHT22;15006;48.584;9.186;2022-12-11T11:20:22;-2.60;93.70
27567;DHT22;15006;48.584;9.186;2022-12-11T11:22:55;-2.50;93.50
27567;DHT22;15006;48.584;9.186;2022-12-11T11:25:31;-2.50;93.30
27567;DHT22;15006;48.584;9.186;2022-12-11T11:28:00;-2.50;92.90
27567;DHT22;15006;48.584;9.186;2022-12-11T11:30:31;-2.40;93.60
27567;DHT22;15006;48.584;9.186;2022-12-11T11:33:03;-2.40;93.60
27567;DHT22;15006;48.584;9.186;2022-12-11T11:35:35;-2.40;93.50
27567;DHT22;15006;48.584;9.186;2022-12-11T11:40:40;-2.30;94.30
27567;DHT22;15006;48.584;9.186;2022-12-11T11:46:18;-2.10;93.50
27567;DHT22;15006;48.584;9.186;2022-12-11T11:49:20;-2.10;93.00
27567;DHT22;15006;48.584;9.186;2022-12-11T11:52:01;-2.00;93.60
27567;DHT22;15006;48.584;9.186;2022-12-11T11:55:10;-1.90;93.40
27567;DHT22;15006;48.584;9.186;2022-12-11T11:57:56;-1.90;92.80
27567;DHT22;15006;48.584;9.186;2022-12-11T12:00:28;-1.80;92.30
27567;DHT22;15006;48.584;9.186;2022-12-11T12:03:22;-1.80;92.80
27567;DHT22;15006;48.584;9.186;2022-12-11T12:06:03;-1.80;92.00
27567;DHT22;15006;48.584;9.186;2022-12-11T12:19:49;-1.70;92.30
27567;DHT22;15006;48.584;9.186;2022-12-11T12:25:30;-1.60;92.40
27567;DHT22;15006;48.584;9.186;2022-12-11T12:39:44;-1.40;91.40
27567;DHT22;15006;48.584;9.186;2022-12-11T12:42:31;-1.40;92.50
27567;DHT22;15006;48.584;9.186;2022-12-11T12:45:30;-1.30;92.30
27567;DHT22;15006;48.584;9.186;2022-12-11T12:47:59;-1.20;92.20
27567;DHT22;15006;48.584;9.186;2022-12-11T12:50:29;-1.10;93.70
27567;DHT22;15006;48.584;9.186;2022-12-11T12:53:04;-1.00;93.10
27567;DHT22;15006;48.584;9.186;2022-12-11T12:55:56;-0.90;93.30
27567;DHT22;15006;48.584;9.186;2022-12-11T12:58:47;-0.80;93.50
27567;DHT22;15006;48.584;9.186;2022-12-11T13:01:38;-0.60;93.50
27567;DHT22;15006;48.584;9.186;2022-12-11T13:04:40;-0.50;93.50
27567;DHT22;15006;48.584;9.186;2022-12-11T13:12:45;-0.10;91.30
27567;DHT22;15006;48.584;9.186;2022-12-11T13:17:50;0.00;89.80
27567;DHT22;15006;48.584;9.186;2022-12-11T13:20:20;0.00;90.60
27567;DHT22;15006;48.584;9.186;2022-12-11T13:22:50;0.00;90.50
27567;DHT22;15006;48.584;9.186;2022-12-11T13:25:55;0.10;90.60
27567;DHT22;15006;48.584;9.186;2022-12-11T13:33:39;0.50;92.90
27567;DHT22;15006;48.584;9.186;2022-12-11T13:38:34;0.80;91.30
27567;DHT22;15006;48.584;9.186;2022-12-11T13:41:03;0.80;90.30
27567;DHT22;15006;48.584;9.186;2022-12-11T13:43:35;0.80;89.30
27567;DHT22;15006;48.584;9.186;2022-12-11T13:46:04;0.70;88.30
27567;DHT22;15006;48.584;9.186;2022-12-11T13:48:37;0.60;87.50
27567;DHT22;15006;48.584;9.186;2022-12-11T13:51:18;0.50;87.80
27567;DHT22;15006;48.584;9.186;2022-12-11T13:53:47;0.40;87.70
27567;DHT22;15006;48.584;9.186;2022-12-11T13:56:19;0.30;89.50
27567;DHT22;15006;48.584;9.186;2022-12-11T13:58:47;0.20;89.30
27567;DHT22;15006;48.584;9.186;2022-12-11T14:01:19;0.20;89.70
27567;DHT22;15006;48.584;9.186;2022-12-11T14:03:54;0.10;89.30
27567;DHT22;15006;48.584;9.186;2022-12-11T14:06:23;0.00;88.70
27567;DHT22;15006;48.584;9.186;2022-12-11T14:08:52;-0.10;89.60
27567;DHT22;15006;48.584;9.186;2022-12-11T14:11:25;-0.20;89.10
27567;DHT22;15006;48.584;9.186;2022-12-11T14:13:54;-0.30;88.70
27567;DHT22;15006;48.584;9.186;2022-12-11T14:16:25;-0.40;89.30
27567;DHT22;15006;48.584;9.186;2022-12-11T14:18:53;-0.50;89.20
27567;DHT22;15006;48.584;9.186;2022-12-11T14:21:24;-0.50;89.50
27567;DHT22;15006;48.584;9.186;2022-12-11T14:23:56;-0.60;90.50
27567;DHT22;15006;48.584;9.186;2022-12-11T14:26:31;-0.60;91.20
27567;DHT22;15006;48.584;9.186;2022-12-11T14:28:59;-0.40;92.00
27567;DHT22;15006;48.584;9.186;2022-12-11T14:31:34;-0.30;92.10
27567;DHT22;15006;48.584;9.186;2022-12-11T14:34:06;-0.30;91.20
27567;DHT22;15006;48.584;9.186;2022-12-11T14:36:37;-0.20;91.00
27567;DHT22;15006;48.584;9.186;2022-12-11T14:39:26;-0.20;90.90
27567;DHT22;15006;48.584;9.186;2022-12-11T14:41:57;-0.20;90.30
27567;DHT22;15006;48.584;9.186;2022-12-11T14:44:29;-0.20;89.00
27567;DHT22;15006;48.584;9.186;2022-12-11T14:47:02;-0.30;90.70
27567;DHT22;15006;48.584;9.186;2022-12-11T14:49:33;-0.40;90.40
27567;DHT22;15006;48.584;9.186;2022-12-11T14:52:20;-0.40;90.40
27567;DHT22;15006;48.584;9.186;2022-12-11T14:54:53;-0.50;89.80
27567;DHT22;15006;48.584;9.186;2022-12-11T14:57:28;-0.60;90.00
27567;DHT22;15006;48.584;9.186;2022-12-11T14:59:55;-0.70;90.20
27567;DHT22;15006;48.584;9.186;2022-12-11T15:05:12;-0.80;90.60
27567;DHT22;15006;48.584;9.186;2022-12-11T15:08:00;-0.90;90.00
27567;DHT22;15006;48.584;9.186;2022-12-11T15:11:11;-0.90;90.20
27567;DHT22;15006;48.584;9.186;2022-12-11T15:16:23;-1.10;90.20
27567;DHT22;15006;48.584;9.186;2022-12-11T15:18:52;-1.10;90.80
27567;DHT22;15006;48.584;9.186;2022-12-11T15:21:45;-1.20;90.80
27567;DHT22;15006;48.584;9.186;2022-12-11T15:24:26;-1.30;90.90
27567;DHT22;15006;48.584;9.186;2022-12-11T15:26:58;-1.30;90.30
27567;DHT22;15006;48.584;9.186;2022-12-11T15:29:35;-1.40;90.80
27567;DHT22;15006;48.584;9.186;2022-12-11T15:34:50;-1.50;90.60
27567;DHT22;15006;48.584;9.186;2022-12-11T15:37:21;-1.50;90.60
27567;DHT22;15006;48.584;9.186;2022-12-11T15:39:52;-1.50;91.20
27567;DHT22;15006;48.584;9.186;2022-12-11T15:42:37;-1.60;91.30
27567;DHT22;15006;48.584;9.186;2022-12-11T15:45:07;-1.60;90.80
27567;DHT22;15006;48.584;9.186;2022-12-11T15:47:38;-1.70;91.40
27567;DHT22;15006;48.584;9.186;2022-12-11T15:50:21;-1.70;91.60
27567;DHT22;15006;48.584;9.186;2022-12-11T15:52:50;-1.70;91.20
27567;DHT22;15006;48.584;9.186;2022-12-11T15:55:18;-1.80;91.70
27567;DHT22;15006;48.584;9.186;2022-12-11T15:57:48;-1.80;91.80
27567;DHT22;15006;48.584;9.186;2022-12-11T16:00:18;-1.80;91.90
27567;DHT22;15006;48.584;9.186;2022-12-11T16:02:45;-1.90;92.00
27567;DHT22;15006;48.584;9.186;2022-12-11T16:05:11;-1.90;92.20
27567;DHT22;15006;48.584;9.186;2022-12-11T16:07:38;-1.90;92.30
27567;DHT22;15006;48.584;9.186;2022-12-11T16:10:06;-2.00;92.20
27567;DHT22;15006;48.584;9.186;2022-12-11T16:12:33;-2.00;92.20
27567;DHT22;15006;48.584;9.186;2022-12-11T16:14:59;-2.00;92.30
27567;DHT22;15006;48.584;9.186;2022-12-11T16:17:25;-2.10;92.40
27567;DHT22;15006;48.584;9.186;2022-12-11T16:19:52;-2.10;92.50
27567;DHT22;15006;48.584;9.186;2022-12-11T16:22:18;-2.10;92.50
27567;DHT22;15006;48.584;9.186;2022-12-11T16:24:44;-2.20;92.60
27567;DHT22;15006;48.584;9.186;2022-12-11T16:27:10;-2.20;92.70
27567;DHT22;15006;48.584;9.186;2022-12-11T16:29:40;-2.20;92.80
27567;DHT22;15006;48.584;9.186;2022-12-11T16:32:07;-2.20;92.80
27567;DHT22;15006;48.584;9.186;2022-12-11T16:34:35;-2.20;92.70
27567;DHT22;15006;48.584;9.186;2022-12-11T16:37:02;-2.30;92.80
27567;DHT22;15006;48.584;9.186;2022-12-11T16:39:30;-2.30;92.90
27567;DHT22;15006;48.584;9.186;2022-12-11T16:41:56;-2.30;93.00
27567;DHT22;15006;48.584;9.186;2022-12-11T16:44:23;-2.30;93.20
27567;DHT22;15006;48.584;9.186;2022-12-11T16:46:51;-2.40;93.20
27567;DHT22;15006;48.584;9.186;2022-12-11T16:49:17;-2.40;93.40
27567;DHT22;15006;48.584;9.186;2022-12-11T16:51:43;-2.40;93.50
27567;DHT22;15006;48.584;9.186;2022-12-11T16:54:10;-2.50;93.50
27567;DHT22;15006;48.584;9.186;2022-12-11T16:56:37;-2.40;93.70
27567;DHT22;15006;48.584;9.186;2022-12-11T16:59:04;-2.40;93.70
27567;DHT22;15006;48.584;9.186;2022-12-11T17:01:31;-2.50;93.80
27567;DHT22;15006;48.584;9.186;2022-12-11T17:03:58;-2.50;94.20
27567;DHT22;15006;48.584;9.186;2022-12-11T17:06:24;-2.50;93.90
27567;DHT22;15006;48.584;9.186;2022-12-11T17:08:50;-2.50;93.90
27567;DHT22;15006;48.584;9.186;2022-12-11T17:11:19;-2.50;94.00
27567;DHT22;15006;48.584;9.186;2022-12-11T17:13:51;-2.60;94.00
27567;DHT22;15006;48.584;9.186;2022-12-11T17:16:21;-2.60;94.10
27567;DHT22;15006;48.584;9.186;2022-12-11T17:18:49;-2.60;94.10
27567;DHT22;15006;48.584;9.186;2022-12-11T17:21:17;-2.60;94.10
27567;DHT22;15006;48.584;9.186;2022-12-11T17:23:44;-2.60;94.40
27567;DHT22;15006;48.584;9.186;2022-12-11T17:26:11;-2.60;94.00
27567;DHT22;15006;48.584;9.186;2022-12-11T17:28:37;-2.70;94.00
27567;DHT22;15006;48.584;9.186;2022-12-11T17:31:05;-2.70;93.90